Time;durP1;ratioP1;P1;durP2;ratioP2;P2;SDS_P1;SDS_P2;PMS_P1;PMS_P2;Temp;Humidity;BMP_temperature;BMP_pressure;BME280_temperature;BME280_humidity;BME280_pressure;Samples;Min_cycle;Max_cycle;Signal;HPM_P1;HPM_P2
2022/11/29 00:01:16;;;;;;;16.45;11.45;;;;;;;;;;5044232;28;20381;-75
2022/11/29 00:03:42;;;;;;;17.92;11.07;;;;;;;;;;5066915;28;20498;-75
2022/11/29 00:06:13;;;;;;;23.35;11.82;;;;;;;;;;5044168;28;20043;-75
2022/11/29 00:08:43;;;;;;;15.07;10.30;;;;;;;;;;5061454;28;20068;-75
2022/11/29 00:11:13;;;;;;;14.15;10.27;;;;;;;;;;5060884;28;20171;-75
2022/11/29 00:13:39;;;;;;;18.80;11.27;;;;;;;;;;5060400;28;24140;-75
2022/11/29 00:16:07;;;;;;;14.32;9.90;;;;;;;;;;5076524;28;20052;-75
2022/11/29 00:18:33;;;;;;;16.13;10.20;;;;;;;;;;5042652;28;20044;-75
2022/11/29 00:20:59;;;;;;;17.17;10.70;;;;;;;;;;5045544;28;20053;-74
2022/11/29 00:23:25;;;;;;;13.38;10.27;;;;;;;;;;5058143;28;20056;-75
2022/11/29 00:25:52;;;;;;;12.63;10.20;;;;;;;;;;5061263;28;20508;-75
2022/11/29 00:28:18;;;;;;;12.88;10.25;;;;;;;;;;5043944;28;20044;-75
2022/11/29 00:30:44;;;;;;;16.67;10.82;;;;;;;;;;5043358;28;20472;-75
2022/11/29 00:33:10;;;;;;;21.00;11.90;;;;;;;;;;5041858;28;20056;-75
2022/11/29 00:35:36;;;;;;;18.60;11.23;;;;;;;;;;5061726;28;20040;-75
2022/11/29 00:38:02;;;;;;;19.60;11.55;;;;;;;;;;5043780;28;20040;-75
2022/11/29 00:40:28;;;;;;;13.93;10.75;;;;;;;;;;5048263;28;20404;-75
2022/11/29 00:42:54;;;;;;;15.65;11.25;;;;;;;;;;5074265;28;20052;-75
2022/11/29 00:45:20;;;;;;;18.60;11.55;;;;;;;;;;5051517;28;20123;-75
2022/11/29 00:47:46;;;;;;;23.58;12.88;;;;;;;;;;5047678;28;20190;-75
2022/11/29 00:50:12;;;;;;;18.80;12.32;;;;;;;;;;5046590;28;21168;-75
2022/11/29 00:52:38;;;;;;;22.20;12.52;;;;;;;;;;5051541;28;20036;-75
2022/11/29 00:55:04;;;;;;;21.70;12.07;;;;;;;;;;5056838;28;20097;-75
2022/11/29 00:57:30;;;;;;;18.00;11.65;;;;;;;;;;5056825;28;20054;-75
2022/11/29 00:59:56;;;;;;;24.27;12.55;;;;;;;;;;5058224;28;20045;-75
2022/11/29 01:02:22;;;;;;;22.40;12.48;;;;;;;;;;5076974;28;20391;-75
2022/11/29 01:04:51;;;;;;;22.52;13.10;;;;;;;;;;5070859;28;20044;-75
2022/11/29 01:07:17;;;;;;;25.52;12.13;;;;;;;;;;5076656;28;20116;-75
2022/11/29 01:09:43;;;;;;;20.98;12.05;;;;;;;;;;5076210;28;20528;-75
2022/11/29 01:12:09;;;;;;;22.75;12.68;;;;;;;;;;5081920;28;20040;-75
2022/11/29 01:14:35;;;;;;;20.23;12.43;;;;;;;;;;5075992;28;21870;-75
2022/11/29 01:17:01;;;;;;;22.30;12.55;;;;;;;;;;5051794;28;20072;-75
2022/11/29 01:19:27;;;;;;;19.23;11.52;;;;;;;;;;5074410;28;20139;-75
2022/11/29 01:21:53;;;;;;;16.58;11.15;;;;;;;;;;5054010;28;20499;-75
2022/11/29 01:24:21;;;;;;;19.50;11.10;;;;;;;;;;5055529;28;20151;-75
2022/11/29 01:26:47;;;;;;;18.67;10.77;;;;;;;;;;5056046;28;20041;-75
2022/11/29 01:29:13;;;;;;;14.70;9.95;;;;;;;;;;5058221;28;20048;-75
2022/11/29 01:31:39;;;;;;;18.45;10.88;;;;;;;;;;5085186;28;20051;-75
2022/11/29 01:34:06;;;;;;;20.52;11.27;;;;;;;;;;5061973;28;20048;-75
2022/11/29 01:36:32;;;;;;;19.88;11.18;;;;;;;;;;5073251;28;20047;-75
2022/11/29 01:39:02;;;;;;;15.48;9.80;;;;;;;;;;5076935;28;20035;-75
2022/11/29 01:41:30;;;;;;;15.48;10.23;;;;;;;;;;5063670;28;20056;-75
2022/11/29 01:43:56;;;;;;;17.58;10.13;;;;;;;;;;5059101;28;20136;-75
2022/11/29 01:46:22;;;;;;;16.55;10.30;;;;;;;;;;5083642;28;20131;-75
2022/11/29 01:48:52;;;;;;;14.55;10.52;;;;;;;;;;5079502;28;20120;-75
2022/11/29 01:51:18;;;;;;;16.30;10.13;;;;;;;;;;5086454;28;20052;-75
2022/11/29 01:53:44;;;;;;;16.30;9.90;;;;;;;;;;5052326;28;20048;-75
2022/11/29 01:56:13;;;;;;;13.48;9.88;;;;;;;;;;5085579;28;20369;-75
2022/11/29 01:58:39;;;;;;;17.23;9.00;;;;;;;;;;5076774;28;20085;-75
2022/11/29 02:01:05;;;;;;;15.82;9.98;;;;;;;;;;5050249;28;20486;-75
2022/11/29 02:03:34;;;;;;;14.15;9.57;;;;;;;;;;5072787;28;20036;-75
2022/11/29 02:06:00;;;;;;;12.18;9.70;;;;;;;;;;5071142;28;20037;-75
2022/11/29 02:08:45;;;;;;;14.20;9.50;;;;;;;;;;5051488;28;20049;-75
2022/11/29 02:11:29;;;;;;;11.73;8.55;;;;;;;;;;5069897;28;20044;-75
2022/11/29 02:14:08;;;;;;;11.15;8.48;;;;;;;;;;5053829;28;20074;-75
2022/11/29 02:16:40;;;;;;;10.75;8.20;;;;;;;;;;5052773;28;20043;-75
2022/11/29 02:19:28;;;;;;;10.70;8.07;;;;;;;;;;5067843;28;20404;-75
2022/11/29 02:22:20;;;;;;;10.65;8.20;;;;;;;;;;5071760;28;20071;-75
2022/11/29 02:24:55;;;;;;;9.10;7.60;;;;;;;;;;5070273;28;20443;-75
2022/11/29 02:27:40;;;;;;;8.85;7.75;;;;;;;;;;5053535;28;20048;-75
2022/11/29 02:30:21;;;;;;;8.63;6.82;;;;;;;;;;5073349;28;20051;-75
2022/11/29 02:33:13;;;;;;;9.82;8.25;;;;;;;;;;5051617;28;20051;-75
2022/11/29 02:35:56;;;;;;;8.60;7.70;;;;;;;;;;5081756;28;20630;-75
2022/11/29 02:38:25;;;;;;;11.50;7.88;;;;;;;;;;5052384;28;20044;-75
2022/11/29 02:41:03;;;;;;;13.93;8.82;;;;;;;;;;5085001;28;20053;-75
2022/11/29 02:43:45;;;;;;;10.52;8.15;;;;;;;;;;5079400;28;20131;-75
2022/11/29 02:46:11;;;;;;;11.35;8.50;;;;;;;;;;5063934;28;20072;-75
2022/11/29 02:48:52;;;;;;;12.88;8.63;;;;;;;;;;5086562;28;20090;-75
2022/11/29 02:51:37;;;;;;;12.57;7.97;;;;;;;;;;5053586;28;20054;-75
2022/11/29 02:54:09;;;;;;;11.85;8.18;;;;;;;;;;5076376;28;20112;-75
2022/11/29 02:56:42;;;;;;;10.70;7.60;;;;;;;;;;5083175;28;20076;-75
2022/11/29 02:59:14;;;;;;;14.57;8.93;;;;;;;;;;5082914;28;20044;-75
2022/11/29 03:01:59;;;;;;;14.05;8.30;;;;;;;;;;5049685;28;20480;-75
2022/11/29 03:04:30;;;;;;;8.93;7.18;;;;;;;;;;5057713;28;21519;-75
2022/11/29 03:07:05;;;;;;;13.07;8.30;;;;;;;;;;5057354;28;20051;-75
2022/11/29 03:09:47;;;;;;;12.15;7.90;;;;;;;;;;5067855;28;20039;-75
2022/11/29 03:12:39;;;;;;;11.43;8.27;;;;;;;;;;5074296;28;20047;-75
2022/11/29 03:15:24;;;;;;;11.48;8.30;;;;;;;;;;5069115;28;20052;-75
2022/11/29 03:17:57;;;;;;;13.15;8.02;;;;;;;;;;5087145;28;20090;-75
2022/11/29 03:20:32;;;;;;;11.90;7.78;;;;;;;;;;5083766;28;20051;-75
2022/11/29 03:23:08;;;;;;;14.15;8.48;;;;;;;;;;5052159;28;20473;-75
2022/11/29 03:26:03;;;;;;;13.70;8.50;;;;;;;;;;5083079;28;20044;-75
2022/11/29 03:28:52;;;;;;;16.10;8.73;;;;;;;;;;5046446;28;20485;-75
2022/11/29 03:31:18;;;;;;;13.13;8.38;;;;;;;;;;5051809;28;20040;-75
2022/11/29 03:34:03;;;;;;;14.07;8.38;;;;;;;;;;5084956;28;20129;-75
2022/11/29 03:36:45;;;;;;;15.10;8.88;;;;;;;;;;5069458;28;20072;-75
2022/11/29 03:39:16;;;;;;;14.02;9.00;;;;;;;;;;5050945;28;20370;-75
2022/11/29 03:41:46;;;;;;;10.82;8.02;;;;;;;;;;5049772;28;21834;-75
2022/11/29 03:44:17;;;;;;;12.05;7.97;;;;;;;;;;5049361;28;20052;-75
2022/11/29 03:46:56;;;;;;;16.08;8.02;;;;;;;;;;5070375;28;20056;-75
2022/11/29 03:49:26;;;;;;;14.98;8.55;;;;;;;;;;5070228;28;20045;-75
2022/11/29 03:52:12;;;;;;;12.57;8.35;;;;;;;;;;5080592;28;20047;-75
2022/11/29 03:54:52;;;;;;;11.50;7.60;;;;;;;;;;5038695;28;20121;-75
2022/11/29 03:57:21;;;;;;;14.32;7.88;;;;;;;;;;5082691;28;20052;-74
2022/11/29 04:00:03;;;;;;;13.60;8.25;;;;;;;;;;5072649;28;20047;-75
2022/11/29 04:02:51;;;;;;;13.63;8.63;;;;;;;;;;5068377;28;20058;-75
2022/11/29 04:05:46;;;;;;;17.10;9.38;;;;;;;;;;5085452;28;20052;-75
2022/11/29 04:08:45;;;;;;;15.52;8.70;;;;;;;;;;4999309;28;20057;-76
2022/11/29 04:11:11;;;;;;;16.95;9.70;;;;;;;;;;5007855;28;20052;-75
2022/11/29 04:13:56;;;;;;;21.70;9.50;;;;;;;;;;5084723;28;20093;-75
2022/11/29 04:16:22;;;;;;;20.33;11.13;;;;;;;;;;5072194;28;20052;-75
2022/11/29 04:18:48;;;;;;;15.63;8.98;;;;;;;;;;5080405;28;20036;-75
2022/11/29 04:21:23;;;;;;;17.30;9.57;;;;;;;;;;5079291;28;20536;-75
2022/11/29 04:24:10;;;;;;;19.48;9.45;;;;;;;;;;5050838;28;20094;-75
2022/11/29 04:26:54;;;;;;;16.73;8.73;;;;;;;;;;5083508;28;20056;-75
2022/11/29 04:29:43;;;;;;;17.63;8.88;;;;;;;;;;5049319;28;20400;-75
2022/11/29 04:32:28;;;;;;;17.85;8.98;;;;;;;;;;5053907;28;20094;-75
2022/11/29 04:35:00;;;;;;;17.88;8.93;;;;;;;;;;5081554;28;20076;-75
2022/11/29 04:37:45;;;;;;;17.35;9.25;;;;;;;;;;5054946;28;20036;-75
2022/11/29 04:40:17;;;;;;;13.15;8.43;;;;;;;;;;5069479;28;20044;-75
2022/11/29 04:43:01;;;;;;;17.13;8.75;;;;;;;;;;5059503;28;20044;-75
2022/11/29 04:45:46;;;;;;;13.68;8.75;;;;;;;;;;5053946;28;20408;-75
2022/11/29 04:48:32;;;;;;;16.13;9.32;;;;;;;;;;5053019;28;20055;-75
2022/11/29 04:51:01;;;;;;;14.82;8.52;;;;;;;;;;5051461;28;20123;-75
2022/11/29 04:53:27;;;;;;;17.02;8.88;;;;;;;;;;5078260;28;20175;-75
2022/11/29 04:56:03;;;;;;;21.05;8.50;;;;;;;;;;5053343;28;20053;-75
2022/11/29 04:58:35;;;;;;;16.80;8.95;;;;;;;;;;5050250;28;20403;-75
2022/11/29 05:01:01;;;;;;;19.75;9.00;;;;;;;;;;5052372;28;20037;-75
2022/11/29 05:03:35;;;;;;;14.73;8.95;;;;;;;;;;5084519;28;20177;-75
2022/11/29 05:06:16;;;;;;;13.32;8.05;;;;;;;;;;5050285;28;20074;-75
2022/11/29 05:08:52;;;;;;;20.67;8.73;;;;;;;;;;5082125;28;20045;-75
2022/11/29 05:11:36;;;;;;;18.88;8.45;;;;;;;;;;5048334;28;20049;-75
2022/11/29 05:14:21;;;;;;;24.13;8.88;;;;;;;;;;5083122;28;20041;-75
2022/11/29 05:16:52;;;;;;;24.38;8.90;;;;;;;;;;5079393;28;20044;-75
2022/11/29 05:19:28;;;;;;;21.48;9.20;;;;;;;;;;5051459;28;20402;-75
2022/11/29 05:22:14;;;;;;;23.33;8.80;;;;;;;;;;5057048;28;20103;-75
2022/11/29 05:25:01;;;;;;;21.75;8.32;;;;;;;;;;5070129;28;20572;-75
2022/11/29 05:27:57;;;;;;;21.80;8.40;;;;;;;;;;5078524;28;20436;-75
2022/11/29 05:30:24;;;;;;;21.55;9.13;;;;;;;;;;5056230;28;20067;-75
2022/11/29 05:32:50;;;;;;;16.85;7.25;;;;;;;;;;5070716;28;20072;-75
2022/11/29 05:35:35;;;;;;;17.95;7.30;;;;;;;;;;5083370;28;20051;-75
2022/11/29 05:38:19;;;;;;;15.60;6.97;;;;;;;;;;5056982;28;20404;-75
2022/11/29 05:40:53;;;;;;;20.88;7.18;;;;;;;;;;5084051;28;20116;-75
2022/11/29 05:43:19;;;;;;;;;;;;;;;;;;5052568;28;20066;-75
2022/11/29 05:45:54;;;;;;;18.77;6.40;;;;;;;;;;5053104;28;20848;-75
2022/11/29 05:48:35;;;;;;;20.00;7.97;;;;;;;;;;5074316;28;20048;-75
2022/11/29 05:51:12;;;;;;;18.63;6.35;;;;;;;;;;5084697;28;20392;-75
2022/11/29 05:53:44;;;;;;;21.65;8.05;;;;;;;;;;5076300;28;20036;-76
2022/11/29 05:56:29;;;;;;;18.77;6.55;;;;;;;;;;5047787;28;20392;-75
2022/11/29 05:59:00;;;;;;;21.55;7.05;;;;;;;;;;5091639;28;20044;-75
2022/11/29 06:01:42;;;;;;;14.85;6.18;;;;;;;;;;5068711;28;20082;-75
2022/11/29 06:04:15;;;;;;;21.02;6.85;;;;;;;;;;5071043;28;20503;-75
2022/11/29 06:06:41;;;;;;;;;;;;;;;;;;5067595;28;20076;-76
2022/11/29 06:09:21;;;;;;;28.33;7.40;;;;;;;;;;5058266;28;20129;-75
2022/11/29 06:11:49;;;;;;;23.73;7.35;;;;;;;;;;5055977;28;20052;-75
2022/11/29 06:14:15;;;;;;;19.75;7.75;;;;;;;;;;5085711;28;20044;-75
2022/11/29 06:16:51;;;;;;;27.85;8.35;;;;;;;;;;5046148;28;20082;-75
2022/11/29 06:19:29;;;;;;;22.08;7.60;;;;;;;;;;5055232;28;20123;-75
2022/11/29 06:22:01;;;;;;;23.63;7.18;;;;;;;;;;5086179;28;21401;-75
2022/11/29 06:24:46;;;;;;;21.83;7.03;;;;;;;;;;5088874;28;20086;-76
2022/11/29 06:27:35;;;;;;;28.15;7.43;;;;;;;;;;5049628;28;20070;-75
2022/11/29 06:30:11;;;;;;;22.15;7.80;;;;;;;;;;5053377;28;20052;-75
2022/11/29 06:32:43;;;;;;;17.88;7.63;;;;;;;;;;5081732;28;20096;-75
2022/11/29 06:35:14;;;;;;;25.58;7.88;;;;;;;;;;5070890;28;20049;-75
2022/11/29 06:37:46;;;;;;;21.15;8.15;;;;;;;;;;5084455;28;20143;-75
2022/11/29 06:40:14;;;;;;;23.38;8.25;;;;;;;;;;5084620;28;20075;-75
2022/11/29 06:42:40;;;;;;;20.10;8.38;;;;;;;;;;5083805;28;20044;-76
2022/11/29 06:45:07;;;;;;;21.40;8.85;;;;;;;;;;5071061;28;20504;-75
2022/11/29 06:47:42;;;;;;;25.02;8.02;;;;;;;;;;5070011;28;20033;-75
2022/11/29 06:50:23;;;;;;;20.02;7.55;;;;;;;;;;5052040;28;20094;-75
2022/11/29 06:52:49;;;;;;;20.77;7.72;;;;;;;;;;5079019;28;20051;-75
2022/11/29 06:55:30;;;;;;;19.35;8.68;;;;;;;;;;5059004;28;20040;-76
2022/11/29 06:58:08;;;;;;;19.95;7.43;;;;;;;;;;5070576;28;20135;-75
2022/11/29 07:00:51;;;;;;;29.40;7.97;;;;;;;;;;5089311;28;20044;-76
2022/11/29 07:03:26;;;;;;;24.67;8.77;;;;;;;;;;5083558;28;20044;-75
2022/11/29 07:05:53;;;;;;;21.73;7.10;;;;;;;;;;5084755;28;20169;-74
2022/11/29 07:08:20;;;;;;;21.48;6.40;;;;;;;;;;5083354;28;20033;-75
2022/11/29 07:10:48;;;;;;;21.13;6.65;;;;;;;;;;5063498;28;20543;-76
2022/11/29 07:13:15;;;;;;;16.70;6.28;;;;;;;;;;5075896;28;20119;-75
2022/11/29 07:15:48;;;;;;;19.80;6.22;;;;;;;;;;5047314;28;20136;-78
2022/11/29 07:18:29;;;;;;;19.67;6.15;;;;;;;;;;5067897;28;20794;-75
2022/11/29 07:21:03;;;;;;;21.27;6.03;;;;;;;;;;5060859;28;20071;-77
2022/11/29 07:23:29;;;;;;;19.00;6.57;;;;;;;;;;5056361;28;20043;-77
2022/11/29 07:26:03;;;;;;;17.38;5.65;;;;;;;;;;5056516;28;20037;-77
2022/11/29 07:28:29;;;;;;;16.85;6.00;;;;;;;;;;5051844;28;20044;-77
2022/11/29 07:31:16;;;;;;;20.80;6.38;;;;;;;;;;5076545;28;20051;-77
2022/11/29 07:33:51;;;;;;;12.48;4.50;;;;;;;;;;5068683;28;20090;-78
2022/11/29 07:36:17;;;;;;;20.13;5.50;;;;;;;;;;5070797;28;20063;-78
2022/11/29 07:38:49;;;;;;;17.92;4.63;;;;;;;;;;5085986;28;20567;-78
2022/11/29 07:41:34;;;;;;;17.23;4.75;;;;;;;;;;5086212;28;20052;-78
2022/11/29 07:44:06;;;;;;;14.20;5.38;;;;;;;;;;5087765;28;20726;-78
2022/11/29 07:46:32;;;;;;;13.98;4.43;;;;;;;;;;5084592;28;20370;-78
2022/11/29 07:48:58;;;;;;;11.98;4.78;;;;;;;;;;5034516;28;20048;-77
2022/11/29 07:51:24;;;;;;;16.13;5.43;;;;;;;;;;5042721;28;20041;-78
2022/11/29 07:53:51;;;;;;;19.35;5.20;;;;;;;;;;5070906;28;20045;-77
2022/11/29 07:56:17;;;;;;;18.95;4.88;;;;;;;;;;5064827;28;20500;-77
2022/11/29 07:58:43;;;;;;;16.17;5.13;;;;;;;;;;5085399;28;20131;-77
2022/11/29 08:01:11;;;;;;;19.75;5.22;;;;;;;;;;5052841;28;20044;-77
2022/11/29 08:03:37;;;;;;;16.85;5.43;;;;;;;;;;5067843;28;20058;-77
2022/11/29 08:06:03;;;;;;;15.25;5.03;;;;;;;;;;5053715;28;20048;-77
2022/11/29 08:08:29;;;;;;;12.60;5.00;;;;;;;;;;5081965;28;20041;-77
2022/11/29 08:10:55;;;;;;;12.50;5.10;;;;;;;;;;5083131;28;20056;-77
2022/11/29 08:13:21;;;;;;;11.98;4.85;;;;;;;;;;5052518;28;20102;-77
2022/11/29 08:15:48;;;;;;;11.88;4.70;;;;;;;;;;5085941;28;20036;-77
2022/11/29 08:18:15;;;;;;;12.23;4.80;;;;;;;;;;5069830;28;20076;-77
2022/11/29 08:20:41;;;;;;;15.20;5.13;;;;;;;;;;5085021;28;20059;-77
2022/11/29 08:23:08;;;;;;;19.00;5.78;;;;;;;;;;5050987;28;20041;-77
2022/11/29 08:25:34;;;;;;;12.98;4.65;;;;;;;;;;5086981;28;20051;-77
2022/11/29 08:28:04;;;;;;;15.35;5.63;;;;;;;;;;5059837;28;20123;-76
2022/11/29 08:30:30;;;;;;;21.40;5.78;;;;;;;;;;5052295;28;20101;-77
2022/11/29 08:32:56;;;;;;;10.30;4.85;;;;;;;;;;5084401;28;20045;-77
2022/11/29 08:35:25;;;;;;;14.45;5.20;;;;;;;;;;5080197;28;20044;-78
2022/11/29 08:37:51;;;;;;;19.10;5.40;;;;;;;;;;5068793;28;20033;-77
2022/11/29 08:40:17;;;;;;;12.93;4.95;;;;;;;;;;5085959;28;20060;-77
2022/11/29 08:42:43;;;;;;;14.93;4.78;;;;;;;;;;5062862;28;20095;-77
2022/11/29 08:45:10;;;;;;;16.33;4.75;;;;;;;;;;5084955;28;20127;-77
2022/11/29 08:47:36;;;;;;;10.82;4.00;;;;;;;;;;5084077;28;20043;-77
2022/11/29 08:50:13;;;;;;;12.32;4.43;;;;;;;;;;5085040;28;20044;-77
2022/11/29 08:55:26;;;;;;;15.48;4.65;;;;;;;;;;5050881;28;20473;-77
2022/11/29 08:57:54;;;;;;;13.18;4.82;;;;;;;;;;5083572;28;20057;-77
2022/11/29 09:00:20;;;;;;;16.48;5.05;;;;;;;;;;5083723;28;20044;-77
2022/11/29 09:02:46;;;;;;;11.05;4.63;;;;;;;;;;5068397;28;20089;-77
2022/11/29 09:05:13;;;;;;;13.25;4.38;;;;;;;;;;5086211;28;20408;-77
2022/11/29 09:07:40;;;;;;;13.60;5.07;;;;;;;;;;5069361;28;20079;-77
2022/11/29 09:10:07;;;;;;;12.15;4.78;;;;;;;;;;5048900;28;20412;-77
2022/11/29 09:12:36;;;;;;;12.35;4.68;;;;;;;;;;5049970;28;20047;-77
2022/11/29 09:15:07;;;;;;;15.88;5.80;;;;;;;;;;5083751;28;20060;-77
2022/11/29 09:17:33;;;;;;;17.20;5.88;;;;;;;;;;5038740;28;20388;-77
2022/11/29 09:19:59;;;;;;;15.20;4.45;;;;;;;;;;5085621;28;20044;-77
2022/11/29 09:22:25;;;;;;;12.23;4.60;;;;;;;;;;5074147;28;20048;-77
2022/11/29 09:24:51;;;;;;;16.02;5.13;;;;;;;;;;5085789;28;20033;-77
2022/11/29 09:27:17;;;;;;;13.63;4.55;;;;;;;;;;5068834;28;20085;-77
2022/11/29 09:29:43;;;;;;;15.60;5.20;;;;;;;;;;5067717;28;20037;-77
2022/11/29 09:32:09;;;;;;;14.60;4.57;;;;;;;;;;5089259;28;20040;-78
2022/11/29 09:34:35;;;;;;;11.88;4.78;;;;;;;;;;5087915;28;20509;-77
2022/11/29 09:37:01;;;;;;;10.00;4.45;;;;;;;;;;5088259;28;20067;-77
2022/11/29 09:39:27;;;;;;;13.57;5.13;;;;;;;;;;5089243;28;20044;-77
2022/11/29 09:42:12;;;;;;;12.40;4.68;;;;;;;;;;5072212;28;20043;-77
2022/11/29 09:44:53;;;;;;;12.15;4.40;;;;;;;;;;5074327;28;20125;-77
2022/11/29 09:47:25;;;;;;;12.10;4.72;;;;;;;;;;5071071;28;20041;-77
2022/11/29 09:50:10;;;;;;;10.45;4.00;;;;;;;;;;5054226;28;20039;-77
2022/11/29 09:52:46;;;;;;;10.77;4.53;;;;;;;;;;5082169;28;20067;-77
2022/11/29 09:55:32;;;;;;;14.07;5.20;;;;;;;;;;5087691;28;20409;-77
2022/11/29 09:57:59;;;;;;;11.57;4.75;;;;;;;;;;5071800;28;20075;-77
2022/11/29 10:00:42;;;;;;;11.65;4.82;;;;;;;;;;5088419;28;20044;-77
2022/11/29 10:03:27;;;;;;;14.73;5.20;;;;;;;;;;5054101;28;20052;-77
2022/11/29 10:05:56;;;;;;;13.20;5.28;;;;;;;;;;5060114;28;20041;-77
2022/11/29 10:08:40;;;;;;;14.35;4.93;;;;;;;;;;5072912;28;20436;-77
2022/11/29 10:11:16;;;;;;;13.70;4.43;;;;;;;;;;5073566;28;20094;-78
2022/11/29 10:13:44;;;;;;;11.88;5.35;;;;;;;;;;5088140;28;20068;-77
2022/11/29 10:16:18;;;;;;;13.77;4.80;;;;;;;;;;5038821;28;20515;-77
2022/11/29 10:18:44;;;;;;;;;;;;;;;;;;5087370;28;20467;-77
2022/11/29 10:21:12;;;;;;;16.40;5.72;;;;;;;;;;5054137;28;19931;-78
2022/11/29 10:23:52;;;;;;;18.95;5.18;;;;;;;;;;5071728;28;20040;-77
2022/11/29 10:26:19;;;;;;;15.85;5.15;;;;;;;;;;5043341;28;20041;-77
2022/11/29 10:28:48;;;;;;;16.17;5.18;;;;;;;;;;5080217;28;20278;-77
2022/11/29 10:31:23;;;;;;;14.10;5.00;;;;;;;;;;5051805;28;20047;-77
2022/11/29 10:33:50;;;;;;;17.52;5.18;;;;;;;;;;5054511;28;20083;-78
2022/11/29 10:36:34;;;;;;;15.40;4.95;;;;;;;;;;5086829;28;20091;-77
2022/11/29 10:39:10;;;;;;;16.42;5.25;;;;;;;;;;5071193;28;20045;-77
2022/11/29 10:41:36;;;;;;;13.40;4.88;;;;;;;;;;5083324;28;20064;-77
2022/11/29 10:44:02;;;;;;;16.77;5.30;;;;;;;;;;5057789;28;20401;-77
2022/11/29 10:46:35;;;;;;;15.30;5.13;;;;;;;;;;5087166;28;21481;-77
2022/11/29 10:49:03;;;;;;;16.88;4.72;;;;;;;;;;5085273;28;20105;-77
2022/11/29 10:51:29;;;;;;;17.10;5.90;;;;;;;;;;5070689;28;20504;-77
2022/11/29 10:53:56;;;;;;;15.98;5.60;;;;;;;;;;5086328;28;20048;-77
2022/11/29 10:56:26;;;;;;;13.63;4.65;;;;;;;;;;5070547;28;20366;-77
2022/11/29 10:58:53;;;;;;;15.07;4.65;;;;;;;;;;5086972;28;20118;-77
2022/11/29 11:01:20;;;;;;;14.65;4.65;;;;;;;;;;5086691;28;20560;-77
2022/11/29 11:03:53;;;;;;;14.68;5.70;;;;;;;;;;5072684;28;20059;-77
2022/11/29 11:06:21;;;;;;;18.88;5.32;;;;;;;;;;5053156;28;20503;-77
2022/11/29 11:09:07;;;;;;;17.83;5.15;;;;;;;;;;5050505;28;20048;-77
2022/11/29 11:11:33;;;;;;;14.93;4.60;;;;;;;;;;5051775;28;20075;-77
2022/11/29 11:14:00;;;;;;;16.15;4.72;;;;;;;;;;5051571;28;20063;-77
2022/11/29 11:16:26;;;;;;;12.93;4.55;;;;;;;;;;5086963;28;20045;-77
2022/11/29 11:18:53;;;;;;;12.95;4.72;;;;;;;;;;5085148;28;20044;-76
2022/11/29 11:21:20;;;;;;;18.55;6.57;;;;;;;;;;5069027;28;20480;-77
2022/11/29 11:23:55;;;;;;;17.10;5.18;;;;;;;;;;5068761;28;20500;-76
2022/11/29 11:26:22;;;;;;;17.38;5.38;;;;;;;;;;5052325;28;20041;-77
2022/11/29 11:28:48;;;;;;;16.00;4.60;;;;;;;;;;5083605;28;20381;-76
2022/11/29 11:31:14;;;;;;;17.75;5.40;;;;;;;;;;5063246;28;20523;-76
2022/11/29 11:33:44;;;;;;;15.15;5.60;;;;;;;;;;5073577;28;20044;-76
2022/11/29 11:36:20;;;;;;;15.13;5.80;;;;;;;;;;5053582;28;20052;-76
2022/11/29 11:38:54;;;;;;;13.30;4.68;;;;;;;;;;5087189;28;20074;-76
2022/11/29 11:41:22;;;;;;;13.90;5.72;;;;;;;;;;5086875;28;20221;-76
2022/11/29 11:43:53;;;;;;;20.27;5.30;;;;;;;;;;5052381;28;20056;-77
2022/11/29 11:46:20;;;;;;;16.05;5.43;;;;;;;;;;5083410;28;20587;-77
2022/11/29 11:48:46;;;;;;;14.93;4.93;;;;;;;;;;5070260;28;20071;-76
2022/11/29 11:51:21;;;;;;;15.35;5.22;;;;;;;;;;5056849;28;20063;-76
2022/11/29 11:53:49;;;;;;;15.32;5.38;;;;;;;;;;5083121;28;20480;-76
2022/11/29 11:56:16;;;;;;;13.18;4.95;;;;;;;;;;5068920;28;20442;-76
2022/11/29 11:58:56;;;;;;;16.92;5.93;;;;;;;;;;5067348;28;20127;-77
2022/11/29 12:01:29;;;;;;;18.17;4.38;;;;;;;;;;5077668;28;20036;-77
2022/11/29 12:04:02;;;;;;;13.52;4.80;;;;;;;;;;5079794;28;20139;-76
2022/11/29 12:06:36;;;;;;;14.70;4.28;;;;;;;;;;5077914;28;20520;-77
2022/11/29 12:09:05;;;;;;;15.07;4.75;;;;;;;;;;5061640;28;20048;-77
2022/11/29 12:11:38;;;;;;;14.23;4.97;;;;;;;;;;5069855;28;20039;-77
2022/11/29 12:14:07;;;;;;;12.70;4.85;;;;;;;;;;5049714;28;20036;-77
2022/11/29 12:16:36;;;;;;;15.85;5.65;;;;;;;;;;5054203;28;20044;-77
2022/11/29 12:19:15;;;;;;;13.38;5.05;;;;;;;;;;5049541;28;20040;-77
2022/11/29 12:21:43;;;;;;;13.98;4.53;;;;;;;;;;5080003;28;20461;-77
2022/11/29 12:24:24;;;;;;;13.75;4.80;;;;;;;;;;5062477;28;20044;-77
2022/11/29 12:26:51;;;;;;;15.13;4.80;;;;;;;;;;5081952;28;20423;-77
2022/11/29 12:29:18;;;;;;;16.70;5.10;;;;;;;;;;5046844;28;20124;-77
2022/11/29 12:31:44;;;;;;;15.02;5.82;;;;;;;;;;5049915;28;20040;-77
2022/11/29 12:34:13;;;;;;;15.60;6.18;;;;;;;;;;5067159;28;20041;-77
2022/11/29 12:36:39;;;;;;;17.92;5.65;;;;;;;;;;5066941;28;20041;-77
2022/11/29 12:39:28;;;;;;;12.77;6.10;;;;;;;;;;5049864;28;20039;-77
2022/11/29 12:41:56;;;;;;;19.85;6.45;;;;;;;;;;5062946;28;20049;-77
2022/11/29 12:44:41;;;;;;;17.67;6.75;;;;;;;;;;5056464;28;20391;-77
2022/11/29 12:47:20;;;;;;;15.38;6.85;;;;;;;;;;5070513;28;20040;-77
2022/11/29 12:50:00;;;;;;;20.88;9.73;;;;;;;;;;5066001;28;20518;-77
2022/11/29 12:52:35;;;;;;;22.50;10.20;;;;;;;;;;5043808;28;20190;-77
2022/11/29 12:55:24;;;;;;;25.33;12.52;;;;;;;;;;5081347;28;20527;-77
2022/11/29 12:57:53;;;;;;;20.77;13.85;;;;;;;;;;5067037;28;20044;-78
2022/11/29 13:00:19;;;;;;;20.80;13.85;;;;;;;;;;5046731;28;20054;-77
2022/11/29 13:03:04;;;;;;;23.73;14.25;;;;;;;;;;5061994;28;20072;-77
2022/11/29 13:05:33;;;;;;;21.45;12.57;;;;;;;;;;5049641;28;20459;-76
2022/11/29 13:08:18;;;;;;;19.58;12.85;;;;;;;;;;5072419;28;20068;-77
2022/11/29 13:11:03;;;;;;;20.52;14.13;;;;;;;;;;5052013;28;20072;-77
2022/11/29 13:13:29;;;;;;;20.10;13.48;;;;;;;;;;5051491;28;20122;-77
2022/11/29 13:15:55;;;;;;;20.70;12.98;;;;;;;;;;5056043;28;20445;-76
2022/11/29 13:18:33;;;;;;;21.50;13.20;;;;;;;;;;5046276;28;20147;-77
2022/11/29 13:21:03;;;;;;;18.15;11.55;;;;;;;;;;5074539;28;20048;-77
2022/11/29 13:23:32;;;;;;;14.35;9.30;;;;;;;;;;5050197;28;20037;-77
2022/11/29 13:25:59;;;;;;;17.63;9.48;;;;;;;;;;5050155;28;20047;-77
2022/11/29 13:28:29;;;;;;;15.93;10.07;;;;;;;;;;5068849;28;20044;-77
2022/11/29 13:31:05;;;;;;;19.20;10.32;;;;;;;;;;5076204;28;20533;-77
2022/11/29 13:33:46;;;;;;;14.32;10.13;;;;;;;;;;5063885;28;20511;-77
2022/11/29 13:36:14;;;;;;;15.32;10.30;;;;;;;;;;5048583;28;20106;-77
2022/11/29 13:39:19;;;;;;;17.65;9.95;;;;;;;;;;5059739;28;20094;-76
2022/11/29 13:41:56;;;;;;;15.70;10.05;;;;;;;;;;4986670;28;20059;-77
2022/11/29 13:44:31;;;;;;;17.15;9.80;;;;;;;;;;4999982;28;20050;-77
2022/11/29 13:46:57;;;;;;;13.85;9.95;;;;;;;;;;5033828;28;20100;-76
2022/11/29 13:49:46;;;;;;;13.25;10.10;;;;;;;;;;5029665;28;20045;-77
2022/11/29 13:52:25;;;;;;;17.15;10.05;;;;;;;;;;5025915;28;20054;-77
2022/11/29 13:55:10;;;;;;;16.20;10.23;;;;;;;;;;5031735;28;20049;-77
2022/11/29 13:58:02;;;;;;;17.90;9.88;;;;;;;;;;5027921;28;20045;-77
2022/11/29 14:00:30;;;;;;;13.95;10.05;;;;;;;;;;5019055;28;20553;-76
2022/11/29 14:02:57;;;;;;;13.55;9.48;;;;;;;;;;5024007;28;20114;-76
2022/11/29 14:05:27;;;;;;;14.32;10.65;;;;;;;;;;5026501;28;20120;-77
2022/11/29 14:08:24;;;;;;;15.55;11.07;;;;;;;;;;5023793;28;20041;-77
2022/11/29 14:10:51;;;;;;;13.35;9.98;;;;;;;;;;5064662;28;20045;-77
2022/11/29 14:13:17;;;;;;;13.00;9.65;;;;;;;;;;5022747;28;20113;-77
2022/11/29 14:15:43;;;;;;;10.93;9.07;;;;;;;;;;5059057;28;20041;-77
2022/11/29 14:18:32;;;;;;;11.23;9.30;;;;;;;;;;5021328;28;20133;-76
2022/11/29 14:20:58;;;;;;;14.27;10.02;;;;;;;;;;5027098;28;20046;-76
2022/11/29 14:23:35;;;;;;;11.63;9.20;;;;;;;;;;5060254;28;20579;-77
2022/11/29 14:26:01;;;;;;;12.65;9.13;;;;;;;;;;5024563;28;20056;-76
2022/11/29 14:28:38;;;;;;;13.65;10.55;;;;;;;;;;5060445;28;20049;-77
2022/11/29 14:31:05;;;;;;;12.85;10.07;;;;;;;;;;5024695;28;20083;-77
2022/11/29 14:33:31;;;;;;;15.95;10.80;;;;;;;;;;5026843;28;20519;-77
2022/11/29 14:36:16;;;;;;;14.27;10.10;;;;;;;;;;5062729;28;20086;-76
2022/11/29 14:39:01;;;;;;;14.05;9.63;;;;;;;;;;5027714;28;20481;-76
2022/11/29 14:41:27;;;;;;;16.05;10.57;;;;;;;;;;5064071;28;20393;-76
2022/11/29 14:44:04;;;;;;;12.07;9.68;;;;;;;;;;5087057;28;20048;-77
2022/11/29 14:46:31;;;;;;;17.50;10.70;;;;;;;;;;5063155;28;20040;-76
2022/11/29 14:49:01;;;;;;;15.80;10.90;;;;;;;;;;5067139;28;20480;-76
2022/11/29 14:51:28;;;;;;;13.88;9.70;;;;;;;;;;5054385;28;20036;-76
2022/11/29 14:54:15;;;;;;;14.60;9.25;;;;;;;;;;5059350;28;20136;-76
2022/11/29 14:56:42;;;;;;;15.23;11.45;;;;;;;;;;5073295;28;20051;-76
2022/11/29 14:59:27;;;;;;;17.50;11.50;;;;;;;;;;5079677;28;20123;-76
2022/11/29 15:01:53;;;;;;;17.27;10.80;;;;;;;;;;5062338;28;20049;-76
2022/11/29 15:04:23;;;;;;;13.95;9.73;;;;;;;;;;5086377;28;20043;-76